This is the latest recevied weather packets stored in our database for station/object SP3PDK-1. If no packets are shown the sender has not sent any weather packets the latest 10 day(s).
| Time | Temp. | Humidity | Pressure | Rain* | Wind** | Luminosity | Snow |
|---|---|---|---|---|---|---|---|
| 1777611258 | 12.78° C | 51% | 1027.7 hPa | - | - | - | - |
| 1777610658 | 12.78° C | 51% | 1027.6 hPa | - | - | - | - |
| 1777610058 | 12.78° C | 53% | 1027.6 hPa | - | - | - | - |
| 1777608255 | 14.44° C | 48% | 1027.5 hPa | - | - | - | - |
| 1777607655 | 10° C | 63% | 1027.6 hPa | - | - | - | - |
| 1777607054 | 10.56° C | 61% | 1027.5 hPa | - | - | - | - |
| 1777606454 | 10° C | 61% | 1027.5 hPa | - | - | - | - |
| 1777605854 | 10° C | 60% | 1027.4 hPa | - | - | - | - |
| 1777605254 | 10.56° C | 60% | 1027.6 hPa | - | - | - | - |
| 1777604658 | 10.56° C | 58% | 1027.5 hPa | - | - | - | - |
| 1777604058 | 10.56° C | 59% | 1027.6 hPa | - | - | - | - |
| 1777601654 | 10.56° C | 58% | 1027.8 hPa | - | - | - | - |
| 1777601053 | 11.11° C | 57% | 1027.8 hPa | - | - | - | - |
| 1777600454 | 11.67° C | 56% | 1027.6 hPa | - | - | - | - |
| 1777599856 | 11.11° C | 57% | 1027.7 hPa | - | - | - | - |
| 1777599255 | 11.11° C | 57% | 1027.8 hPa | - | - | - | - |
| 1777598657 | 11.11° C | 57% | 1027.8 hPa | - | - | - | - |
| 1777598054 | 11.67° C | 55% | 1027.7 hPa | - | - | - | - |
| 1777597454 | 11.67° C | 54% | 1027.7 hPa | - | - | - | - |
| 1777596854 | 12.22° C | 53% | 1027.7 hPa | - | - | - | - |
| 1777596258 | 12.22° C | 53% | 1027.5 hPa | - | - | - | - |
| 1777595658 | 12.22° C | 52% | 1027.5 hPa | - | - | - | - |
| 1777595055 | 12.22° C | 51% | 1027.5 hPa | - | - | - | - |
| 1777594453 | 12.22° C | 52% | 1027.7 hPa | - | - | - | - |
| 1777593854 | 12.22° C | 52% | 1027.7 hPa | - | - | - | - |
* Rain since midnight (hover to see other rain measurements)
** Current wind speed in m/s (hover to see current wind gust speed)